Time;durP1;ratioP1;P1;durP2;ratioP2;P2;SDS_P1;SDS_P2;PMS_P1;PMS_P2;Temp;Humidity;BMP_temperature;BMP_pressure;BME280_temperature;BME280_humidity;BME280_pressure;Samples;Min_cycle;Max_cycle;Signal;HPM_P1;HPM_P2
2023/05/12 00:01:13;;;;;;;13.10;6.20;;;;;;;9.50;67.26;100796.97;105773;1250;69033;-60
2023/05/12 00:03:41;;;;;;;9.60;6.30;;;;;;;9.48;67.25;100796.67;105804;1253;75296;-60
2023/05/12 00:06:10;;;;;;;10.20;6.30;;;;;;;9.47;67.22;100794.96;105773;1253;83233;-60
2023/05/12 00:08:38;;;;;;;9.50;5.90;;;;;;;9.43;67.37;100792.98;105767;1251;73388;-60
2023/05/12 00:11:06;;;;;;;7.30;5.60;;;;;;;9.39;67.29;100795.69;105703;1253;69196;-60
2023/05/12 00:13:34;;;;;;;9.80;6.10;;;;;;;9.35;67.34;100792.84;105702;1253;69162;-60
2023/05/12 00:16:03;;;;;;;12.20;6.30;;;;;;;9.31;67.54;100796.40;105753;1253;73029;-60
2023/05/12 00:18:32;;;;;;;8.50;5.70;;;;;;;9.26;67.63;100794.80;105758;1250;83495;-60
2023/05/12 00:21:00;;;;;;;7.90;5.60;;;;;;;9.22;67.63;100797.53;105719;1253;73644;-60
2023/05/12 00:23:28;;;;;;;9.80;6.20;;;;;;;9.13;67.50;100795.48;105784;1249;69199;-60
2023/05/12 00:25:57;;;;;;;10.30;5.70;;;;;;;9.04;67.49;100794.65;105566;1249;69190;-60
2023/05/12 00:28:25;;;;;;;10.30;6.20;;;;;;;8.96;67.92;100792.39;105763;1251;74840;-60
2023/05/12 00:30:53;;;;;;;11.10;6.00;;;;;;;8.87;67.61;100794.35;105697;1250;82425;-60
2023/05/12 00:33:21;;;;;;;10.60;5.90;;;;;;;8.76;67.92;100793.74;105705;1251;73665;-59
2023/05/12 00:35:50;;;;;;;10.60;6.60;;;;;;;8.68;68.11;100794.27;105732;1253;70205;-60
2023/05/12 00:38:18;;;;;;;10.70;6.00;;;;;;;8.63;68.14;100793.70;105729;1253;69115;-59
2023/05/12 00:40:47;;;;;;;10.50;6.50;;;;;;;8.55;68.29;100793.88;105727;1250;72589;-60
2023/05/12 00:43:15;;;;;;;10.10;5.90;;;;;;;8.50;68.58;100793.13;105706;1253;82584;-60
2023/05/12 00:45:43;;;;;;;12.90;6.60;;;;;;;8.45;68.41;100790.27;105700;1251;72679;-60
2023/05/12 00:48:12;;;;;;;10.80;6.10;;;;;;;8.44;68.65;100789.94;105618;1256;69183;-60
2023/05/12 00:50:40;;;;;;;11.20;6.60;;;;;;;8.38;68.88;100788.13;105705;1256;69131;-59
2023/05/12 00:53:09;;;;;;;10.80;6.50;;;;;;;8.35;69.02;100790.29;105686;1251;74935;-59
2023/05/12 00:55:37;;;;;;;10.30;6.80;;;;;;;8.31;69.13;100793.31;105792;1250;82846;-59
2023/05/12 00:58:07;;;;;;;9.10;6.20;;;;;;;8.26;69.02;100793.77;105667;1250;73369;-59
2023/05/12 01:00:36;;;;;;;8.90;6.90;;;;;;;8.22;69.18;100792.63;105621;1251;69030;-59
2023/05/12 01:03:04;;;;;;;12.10;7.00;;;;;;;8.20;69.51;100793.20;105765;1253;69148;-59
2023/05/12 01:05:59;;;;;;;10.20;6.60;;;;;;;8.20;69.59;100792.68;105726;1253;73023;-60
2023/05/12 01:08:28;;;;;;;13.80;7.10;;;;;;;8.22;69.70;100792.80;105774;1251;82813;-59
2023/05/12 01:10:56;;;;;;;10.10;5.70;;;;;;;8.22;69.56;100791.95;105593;1251;73638;-59
2023/05/12 01:13:26;;;;;;;11.00;6.40;;;;;;;8.26;69.53;100793.09;105630;1251;69167;-59
2023/05/12 01:15:55;;;;;;;10.30;6.00;;;;;;;8.24;69.65;100784.77;105632;1256;69083;-59
2023/05/12 01:18:26;;;;;;;10.00;6.30;;;;;;;8.21;69.79;100789.53;105812;1254;75208;-59
2023/05/12 01:20:55;;;;;;;9.30;6.10;;;;;;;8.19;70.00;100789.40;105769;1250;83386;-59
2023/05/12 01:23:28;;;;;;;10.30;6.70;;;;;;;8.20;69.79;100790.59;105759;1251;73802;-59
2023/05/12 01:26:07;;;;;;;10.60;6.80;;;;;;;8.23;70.02;100791.57;105622;1253;69211;-59
2023/05/12 01:28:36;;;;;;;10.80;5.30;;;;;;;8.21;69.60;100793.52;105828;1251;69075;-59
2023/05/12 01:31:07;;;;;;;12.20;6.60;;;;;;;8.24;69.76;100798.15;105688;1256;75097;-59
2023/05/12 01:33:38;;;;;;;8.10;5.20;;;;;;;8.24;69.66;100802.67;105630;1251;82459;-59
2023/05/12 01:36:07;;;;;;;7.00;4.70;;;;;;;8.24;69.48;100806.52;105737;1250;72799;-59
2023/05/12 01:38:36;;;;;;;12.20;5.80;;;;;;;8.22;69.54;100805.51;105672;1255;69198;-59
2023/05/12 01:41:05;;;;;;;7.50;5.50;;;;;;;8.14;69.31;100808.13;105771;1251;69052;-59
2023/05/12 01:43:33;;;;;;;8.70;5.60;;;;;;;8.06;69.28;100808.97;105733;1251;74573;-59
2023/05/12 01:46:02;;;;;;;7.50;5.40;;;;;;;7.98;69.41;100809.14;105692;1253;83331;-59
2023/05/12 01:48:31;;;;;;;8.60;5.00;;;;;;;7.91;69.90;100810.14;105747;1251;73828;-59
2023/05/12 01:51:00;;;;;;;10.20;5.10;;;;;;;7.85;70.10;100816.52;105788;1251;69234;-59
2023/05/12 01:53:29;;;;;;;6.50;4.60;;;;;;;7.81;70.20;100817.48;105610;1250;69166;-59
2023/05/12 01:55:57;;;;;;;10.10;5.60;;;;;;;7.77;69.76;100818.77;105740;1250;74812;-59
2023/05/12 01:58:26;;;;;;;9.00;5.40;;;;;;;7.69;69.54;100817.18;105726;1250;83782;-59
2023/05/12 02:00:55;;;;;;;8.70;5.00;;;;;;;7.61;69.76;100821.50;105685;1254;72853;-59
2023/05/12 02:03:23;;;;;;;8.80;5.40;;;;;;;7.55;69.95;100821.08;105733;1253;69272;-59
2023/05/12 02:05:52;;;;;;;10.80;5.30;;;;;;;7.48;70.23;100819.30;105733;1253;69837;-59
2023/05/12 02:08:20;;;;;;;8.60;5.30;;;;;;;7.43;70.34;100821.13;105796;1251;73869;-59
2023/05/12 02:10:48;;;;;;;7.70;5.40;;;;;;;7.40;70.77;100820.64;105652;1256;83705;-59
2023/05/12 02:13:17;;;;;;;9.60;5.30;;;;;;;7.38;71.13;100823.46;105735;1250;73497;-59
2023/05/12 02:15:45;;;;;;;8.10;5.20;;;;;;;7.36;71.21;100825.41;105675;1250;69238;-59
2023/05/12 02:18:13;;;;;;;6.30;5.00;;;;;;;7.34;71.10;100824.92;105720;1253;69257;-59
2023/05/12 02:20:42;;;;;;;11.20;5.80;;;;;;;7.28;71.24;100826.42;105758;1253;73971;-59
2023/05/12 02:23:10;;;;;;;6.90;4.70;;;;;;;7.22;71.29;100830.87;105674;1253;83518;-59
2023/05/12 02:25:39;;;;;;;9.60;5.50;;;;;;;7.18;71.52;100827.80;105826;1251;73854;-59
2023/05/12 02:28:10;;;;;;;10.00;5.90;;;;;;;7.16;71.97;100828.70;105720;1251;69181;-59
2023/05/12 02:30:44;;;;;;;9.10;5.10;;;;;;;7.13;72.06;100832.23;105696;1250;69186;-59
2023/05/12 02:33:14;;;;;;;9.80;5.40;;;;;;;7.08;72.10;100830.91;105731;1253;75171;-59
2023/05/12 02:35:43;;;;;;;6.90;5.20;;;;;;;7.03;72.14;100828.39;105737;1253;83467;-59
2023/05/12 02:38:12;;;;;;;12.20;5.70;;;;;;;6.98;72.49;100828.30;105783;1251;72906;-59
2023/05/12 02:40:41;;;;;;;6.60;5.30;;;;;;;6.92;72.36;100829.59;105687;1255;69259;-59
2023/05/12 02:43:09;;;;;;;10.10;5.50;;;;;;;6.87;72.46;100829.33;105681;1254;69637;-59
2023/05/12 02:45:38;;;;;;;9.20;4.40;;;;;;;6.84;72.67;100826.75;105568;1250;74652;-59
2023/05/12 02:48:06;;;;;;;10.20;5.20;;;;;;;6.80;72.70;100827.16;105840;1250;82627;-59
2023/05/12 02:50:34;;;;;;;6.20;4.90;;;;;;;6.75;72.62;100826.39;105688;1253;73859;-59
2023/05/12 02:53:02;;;;;;;13.30;5.70;;;;;;;6.71;72.64;100826.09;105677;1253;69193;-59
2023/05/12 02:55:31;;;;;;;10.80;5.80;;;;;;;6.66;72.85;100829.63;105626;1254;69246;-59
2023/05/12 02:57:59;;;;;;;7.60;5.20;;;;;;;6.64;73.09;100827.92;105889;1250;74548;-59
2023/05/12 03:00:28;;;;;;;9.80;5.10;;;;;;;6.63;73.30;100827.23;105789;1250;83315;-59
2023/05/12 03:02:56;;;;;;;5.70;4.90;;;;;;;6.61;73.07;100825.88;105722;1253;73203;-59
2023/05/12 03:05:25;;;;;;;9.80;5.30;;;;;;;6.61;73.42;100828.48;105696;1251;69094;-59
2023/05/12 03:07:53;;;;;;;10.60;5.30;;;;;;;6.58;73.37;100827.65;105721;1253;69067;-59
2023/05/12 03:10:22;;;;;;;7.10;4.80;;;;;;;6.57;73.50;100829.05;105936;1250;75129;-59
2023/05/12 03:12:50;;;;;;;8.80;5.30;;;;;;;6.54;73.50;100827.36;105615;1256;83265;-59
2023/05/12 03:15:18;;;;;;;11.40;5.50;;;;;;;6.54;73.86;100831.18;105725;1253;73451;-59
2023/05/12 03:17:47;;;;;;;7.80;5.10;;;;;;;6.51;73.92;100829.13;105786;1251;69088;-59
2023/05/12 03:20:16;;;;;;;6.80;5.40;;;;;;;6.48;74.22;100832.66;105734;1253;69398;-59
2023/05/12 03:22:45;;;;;;;10.20;5.40;;;;;;;6.48;74.19;100831.60;105804;1255;74808;-59
2023/05/12 03:25:13;;;;;;;8.80;5.30;;;;;;;6.48;74.26;100836.30;105650;1249;82515;-59
2023/05/12 03:27:42;;;;;;;7.70;5.50;;;;;;;6.50;74.44;100837.84;105696;1253;73869;-60
2023/05/12 03:30:11;;;;;;;7.00;5.40;;;;;;;6.53;74.55;100843.17;105655;1250;69225;-60
2023/05/12 03:32:39;;;;;;;9.20;5.40;;;;;;;6.54;74.70;100843.69;105773;1251;69077;-59
2023/05/12 03:35:09;;;;;;;10.90;6.00;;;;;;;6.49;74.62;100845.31;105818;1253;74402;-59
2023/05/12 03:37:37;;;;;;;8.50;5.80;;;;;;;6.48;74.83;100844.11;105635;1250;83178;-60
2023/05/12 03:40:07;;;;;;;7.30;5.40;;;;;;;6.50;75.00;100846.85;105967;1250;72720;-59
2023/05/12 03:42:35;;;;;;;10.30;5.60;;;;;;;6.50;74.88;100847.20;105697;1256;69104;-59
2023/05/12 03:45:05;;;;;;;7.30;5.30;;;;;;;6.48;74.94;100845.48;105632;1256;69621;-59
2023/05/12 03:47:34;;;;;;;7.10;5.40;;;;;;;6.49;75.01;100844.80;105651;1251;74978;-59
2023/05/12 03:50:03;;;;;;;7.80;5.70;;;;;;;6.52;75.24;100845.45;105788;1251;81870;-59
2023/05/12 03:52:32;;;;;;;7.30;5.70;;;;;;;6.56;75.51;100846.43;105738;1251;73668;-59
2023/05/12 03:55:01;;;;;;;9.10;5.50;;;;;;;6.59;75.69;100842.91;105683;1254;69221;-59
2023/05/12 03:57:29;;;;;;;6.50;5.20;;;;;;;6.61;75.50;100845.16;105818;1253;69208;-59
2023/05/12 03:59:57;;;;;;;10.80;5.70;;;;;;;6.65;75.68;100848.73;105703;1251;74019;-59
2023/05/12 04:02:26;;;;;;;9.20;5.50;;;;;;;6.68;75.70;100848.34;105779;1253;83258;-59
2023/05/12 04:04:54;;;;;;;8.90;5.00;;;;;;;6.74;75.95;100848.10;105859;1251;73504;-59
2023/05/12 04:07:23;;;;;;;8.30;5.50;;;;;;;6.79;76.06;100845.77;105744;1251;69173;-59
2023/05/12 04:09:51;;;;;;;9.50;5.90;;;;;;;6.86;76.16;100842.89;105668;1256;69112;-59
2023/05/12 04:12:19;;;;;;;10.10;6.10;;;;;;;6.93;76.34;100850.25;105712;1253;72983;-59
2023/05/12 04:14:47;;;;;;;7.60;5.50;;;;;;;6.98;76.27;100846.01;105726;1250;82514;-58
2023/05/12 04:17:17;;;;;;;7.40;5.40;;;;;;;7.05;76.51;100845.91;105652;1251;72755;-58
2023/05/12 04:19:46;;;;;;;7.80;5.60;;;;;;;7.14;76.58;100848.03;105574;1255;69192;-59
2023/05/12 04:22:14;;;;;;;6.90;5.40;;;;;;;7.24;76.43;100852.21;105836;1253;69189;-59
2023/05/12 04:24:42;;;;;;;9.50;5.30;;;;;;;7.34;76.68;100852.05;105659;1256;74161;-58
2023/05/12 04:27:11;;;;;;;8.90;5.90;;;;;;;7.43;76.55;100851.73;105885;1253;83226;-58
2023/05/12 04:29:39;;;;;;;7.10;5.20;;;;;;;7.54;76.44;100853.95;105712;1253;73864;-59
2023/05/12 04:32:07;;;;;;;8.30;5.40;;;;;;;7.65;76.59;100857.44;105556;1254;69317;-59
2023/05/12 04:34:36;;;;;;;7.80;5.50;;;;;;;7.74;76.29;100856.40;106002;1251;69145;-58
2023/05/12 04:37:05;;;;;;;7.60;5.30;;;;;;;7.84;75.99;100858.65;105864;1250;74589;-59
2023/05/12 04:39:34;;;;;;;7.70;5.00;;;;;;;7.96;76.04;100861.40;105776;1253;83434;-58
2023/05/12 04:42:03;;;;;;;10.70;5.50;;;;;;;8.08;75.73;100863.60;105772;1251;73424;-59
2023/05/12 04:44:35;;;;;;;6.30;4.90;;;;;;;8.21;75.25;100864.58;105902;1256;69425;-59
2023/05/12 04:47:04;;;;;;;10.70;5.50;;;;;;;8.37;74.98;100869.29;106027;1256;69151;-59
2023/05/12 04:49:32;;;;;;;12.10;5.50;;;;;;;8.56;74.38;100869.09;105831;1253;73828;-59
2023/05/12 04:52:00;;;;;;;7.90;4.80;;;;;;;8.75;74.08;100868.52;105795;1253;83180;-58
2023/05/12 04:54:28;;;;;;;7.20;5.10;;;;;;;8.98;73.98;100870.09;106003;1251;73709;-59
2023/05/12 04:56:57;;;;;;;7.00;4.40;;;;;;;9.15;73.23;100872.49;105902;1253;69221;-58
2023/05/12 04:59:25;;;;;;;9.50;5.10;;;;;;;9.27;72.73;100873.95;105723;1253;69170;-59
2023/05/12 05:01:54;;;;;;;8.00;4.50;;;;;;;9.36;72.61;100871.98;106138;1251;75089;-59
2023/05/12 05:04:23;;;;;;;8.30;4.60;;;;;;;9.49;72.20;100872.36;105828;1251;82521;-58
2023/05/12 05:06:54;;;;;;;9.20;4.20;;;;;;;9.58;71.99;100868.63;105822;1250;73638;-58
2023/05/12 05:09:23;;;;;;;7.50;4.80;;;;;;;9.69;71.69;100870.64;106121;1250;69041;-58
2023/05/12 05:11:51;;;;;;;7.60;4.70;;;;;;;9.80;71.20;100867.55;105774;1251;69044;-58
2023/05/12 05:14:21;;;;;;;6.80;4.00;;;;;;;9.94;71.19;100872.08;105830;1253;74619;-58
2023/05/12 05:16:49;;;;;;;8.70;4.50;;;;;;;10.04;70.78;100870.39;105870;1250;83502;-58
2023/05/12 05:19:17;;;;;;;7.90;4.50;;;;;;;10.15;70.60;100873.42;105545;1250;72914;-57
2023/05/12 05:21:57;;;;;;;9.20;4.50;;;;;;;10.29;70.32;100867.29;105767;1250;69207;-58
2023/05/12 05:24:25;;;;;;;6.30;4.40;;;;;;;10.48;70.13;100866.58;105871;1253;69391;-59
2023/05/12 05:26:54;;;;;;;7.00;4.20;;;;;;;10.64;69.78;100872.38;105998;1253;73659;-58
2023/05/12 05:29:22;;;;;;;6.40;4.60;;;;;;;10.78;69.57;100873.20;105685;1251;82927;-59
2023/05/12 05:31:51;;;;;;;10.00;4.20;;;;;;;10.91;69.12;100871.21;105897;1253;72573;-58
2023/05/12 05:34:20;;;;;;;8.00;4.10;;;;;;;11.04;68.93;100869.08;105771;1251;69063;-58
2023/05/12 05:36:48;;;;;;;7.40;4.00;;;;;;;11.17;68.33;100869.36;105574;1250;181760;-59
2023/05/12 05:39:17;;;;;;;7.50;4.10;;;;;;;11.27;67.49;100870.29;105785;1251;74830;-59
2023/05/12 05:41:45;;;;;;;6.50;3.90;;;;;;;11.36;67.70;100869.80;105967;1253;82275;-58
2023/05/12 05:44:14;;;;;;;6.00;4.30;;;;;;;11.48;67.32;100873.77;105888;1251;73268;-58
2023/05/12 05:46:42;;;;;;;8.70;4.50;;;;;;;11.56;66.60;100872.98;105765;1251;69191;-59
2023/05/12 05:49:11;;;;;;;9.50;3.90;;;;;;;11.65;66.39;100873.74;105974;1256;69118;-57
2023/05/12 05:51:39;;;;;;;6.90;3.60;;;;;;;11.73;65.95;100877.13;105745;1250;74832;-60
2023/05/12 05:54:07;;;;;;;8.50;3.90;;;;;;;11.82;65.52;100877.55;105732;1256;83184;-59
2023/05/12 05:56:36;;;;;;;6.20;3.90;;;;;;;11.90;65.13;100880.78;105741;1253;74162;-59
2023/05/12 05:59:05;;;;;;;9.80;4.20;;;;;;;11.99;64.79;100882.07;105760;1253;69119;-60
2023/05/12 06:01:33;;;;;;;8.50;4.00;;;;;;;12.06;64.46;100884.08;105748;1251;69077;-60
2023/05/12 06:04:01;;;;;;;6.70;4.00;;;;;;;12.15;64.53;100884.98;105721;1250;75003;-61
2023/05/12 06:06:30;;;;;;;7.10;4.00;;;;;;;12.29;64.47;100892.71;105675;1256;83323;-57
2023/05/12 06:09:00;;;;;;;6.60;3.90;;;;;;;12.40;64.10;100895.11;105692;1253;74964;-44
2023/05/12 06:11:28;;;;;;;6.40;3.70;;;;;;;12.51;63.87;100890.33;105939;1250;69943;-44
2023/05/12 06:13:56;;;;;;;5.60;3.60;;;;;;;12.59;63.40;100891.77;106026;1253;70321;-44
2023/05/12 06:16:26;;;;;;;6.20;3.90;;;;;;;12.66;62.59;100892.23;105676;1256;74849;-44
2023/05/12 06:18:54;;;;;;;9.30;4.40;;;;;;;12.72;62.53;100892.34;105689;1252;83494;-45
2023/05/12 06:21:22;;;;;;;7.30;4.00;;;;;;;12.80;62.29;100891.69;105740;1251;72643;-44
2023/05/12 06:23:53;;;;;;;7.40;4.50;;;;;;;12.87;62.00;100890.36;105823;1253;69989;-44
2023/05/12 06:26:21;;;;;;;7.90;4.20;;;;;;;12.96;61.82;100886.86;105801;1251;69903;-44
2023/05/12 06:28:49;;;;;;;8.10;3.70;;;;;;;13.03;61.53;100885.70;105821;1251;73840;-44
2023/05/12 06:31:18;;;;;;;8.00;4.10;;;;;;;13.11;61.30;100887.13;105694;1250;82875;-44
2023/05/12 06:33:47;;;;;;;8.20;3.90;;;;;;;13.20;61.18;100886.95;105848;1251;73711;-44
2023/05/12 06:36:15;;;;;;;8.50;4.10;;;;;;;13.28;60.94;100888.94;105833;1256;70088;-45
2023/05/12 06:38:43;;;;;;;14.60;4.80;;;;;;;13.34;60.49;100891.52;105743;1250;69791;-44
2023/05/12 06:41:13;;;;;;;7.60;3.90;;;;;;;13.40;60.50;100890.58;105703;1250;74045;-45
2023/05/12 06:43:42;;;;;;;7.30;3.80;;;;;;;13.47;60.50;100893.25;105822;1256;83317;-45
2023/05/12 06:46:11;;;;;;;9.20;4.40;;;;;;;13.57;60.60;100892.31;105782;1256;73971;-44
2023/05/12 06:48:39;;;;;;;6.10;3.50;;;;;;;13.70;60.76;100888.09;105683;1254;70258;-45
2023/05/12 06:51:08;;;;;;;6.50;4.00;;;;;;;13.83;60.33;100891.06;105781;1253;69996;-44
2023/05/12 06:53:36;;;;;;;5.50;4.00;;;;;;;13.94;60.38;100892.17;105745;1257;74525;-44
2023/05/12 06:56:05;;;;;;;7.30;3.60;;;;;;;14.04;60.11;100888.20;105935;1251;84158;-45
2023/05/12 06:58:33;;;;;;;8.10;4.10;;;;;;;14.16;60.25;100893.33;105692;1256;73657;-44
2023/05/12 07:01:01;;;;;;;5.70;3.90;;;;;;;14.29;60.16;100890.66;106059;1253;69963;-45
2023/05/12 07:03:32;;;;;;;10.40;4.60;;;;;;;14.39;59.40;100888.27;105859;1253;69961;-44
2023/05/12 07:06:00;;;;;;;7.50;3.80;;;;;;;14.49;59.16;100884.81;105936;1250;73841;-45
2023/05/12 07:08:28;;;;;;;6.00;3.40;;;;;;;14.60;58.63;100885.91;105794;1253;82650;-47
2023/05/12 07:10:59;;;;;;;10.50;3.80;;;;;;;14.72;58.73;100884.83;105762;1250;72805;-46
2023/05/12 07:13:27;;;;;;;6.70;3.10;;;;;;;14.87;58.11;100884.15;105849;1254;69970;-44
2023/05/12 07:15:56;;;;;;;6.50;3.20;;;;;;;14.97;57.51;100879.81;105981;1254;70447;-44
2023/05/12 07:18:24;;;;;;;7.70;3.40;;;;;;;15.06;57.17;100878.16;105827;1251;73664;-45
2023/05/12 07:20:52;;;;;;;11.00;3.50;;;;;;;15.15;56.95;100877.87;105803;1253;83151;-45
2023/05/12 07:23:21;;;;;;;5.20;3.40;;;;;;;15.26;56.90;100875.08;105812;1253;73438;-45
2023/05/12 07:25:49;;;;;;;6.20;3.30;;;;;;;15.35;56.69;100876.89;105724;1250;69976;-45
2023/05/12 07:28:17;;;;;;;7.10;3.50;;;;;;;15.46;56.44;100878.46;105824;1249;69996;-45
2023/05/12 07:30:46;;;;;;;6.00;3.70;;;;;;;15.55;56.22;100871.86;105826;1253;73555;-45
2023/05/12 07:33:14;;;;;;;7.00;3.70;;;;;;;15.65;56.06;100873.45;105750;1253;83508;-45
2023/05/12 07:35:42;;;;;;;4.70;3.20;;;;;;;15.76;55.88;100869.24;105817;1251;74505;-45
2023/05/12 07:38:10;;;;;;;7.30;2.80;;;;;;;15.89;55.62;100864.68;105845;1253;69974;-45
2023/05/12 07:40:38;;;;;;;6.10;3.40;;;;;;;16.01;55.70;100870.21;105804;1254;69992;-44
2023/05/12 07:43:07;;;;;;;4.70;3.40;;;;;;;16.13;55.07;100868.22;105979;1253;73870;-45
2023/05/12 07:45:35;;;;;;;5.40;3.20;;;;;;;16.22;54.57;100873.75;105828;1253;83110;-45
2023/05/12 07:48:03;;;;;;;7.60;3.20;;;;;;;16.34;54.34;100873.61;105784;1251;72838;-46
2023/05/12 07:50:31;;;;;;;5.00;3.30;;;;;;;16.43;54.19;100870.48;105778;1251;70691;-48
2023/05/12 07:53:00;;;;;;;7.10;3.10;;;;;;;16.54;54.35;100873.95;105905;1251;69987;-48
2023/05/12 07:55:28;;;;;;;6.50;3.10;;;;;;;16.67;54.24;100874.83;105921;1253;74303;-50
2023/05/12 07:57:56;;;;;;;4.70;3.40;;;;;;;16.81;54.14;100873.73;105874;1253;83113;-46
2023/05/12 08:00:24;;;;;;;6.00;3.30;;;;;;;16.97;54.20;100869.29;105777;1253;72850;-44
2023/05/12 08:02:54;;;;;;;4.90;3.20;;;;;;;17.12;53.43;100873.07;105825;1253;70675;-44
2023/05/12 08:05:22;;;;;;;7.10;3.70;;;;;;;17.22;53.01;100871.80;105914;1253;69942;-44
2023/05/12 08:07:51;;;;;;;3.60;2.80;;;;;;;17.29;52.45;100872.08;105655;1256;73302;-44
2023/05/12 08:10:19;;;;;;;4.70;2.70;;;;;;;17.38;52.14;100872.80;105824;1254;82446;-45
2023/05/12 08:12:47;;;;;;;4.90;3.00;;;;;;;17.47;51.94;100873.53;105783;1250;73617;-45
2023/05/12 08:15:15;;;;;;;6.50;2.80;;;;;;;17.57;51.87;100876.63;105786;1253;69965;-45
2023/05/12 08:17:43;;;;;;;5.50;3.40;;;;;;;17.70;51.32;100870.55;105702;1251;69889;-45
2023/05/12 08:20:12;;;;;;;5.70;2.80;;;;;;;17.85;51.10;100874.33;105585;1251;75032;-46
2023/05/12 08:22:41;;;;;;;5.10;2.60;;;;;;;17.96;50.50;100877.73;105761;1253;83354;-46
2023/05/12 08:25:09;;;;;;;5.40;2.70;;;;;;;18.07;50.27;100875.81;105764;1253;73615;-46
2023/05/12 08:27:40;;;;;;;6.60;2.70;;;;;;;18.17;50.13;100877.18;105757;1255;69880;-46
2023/05/12 08:30:09;;;;;;;7.30;3.20;;;;;;;18.27;49.92;100875.83;105695;1253;69983;-46
2023/05/12 08:32:37;;;;;;;7.00;2.70;;;;;;;18.39;49.58;100874.03;105773;1254;73835;-45
2023/05/12 08:35:06;;;;;;;3.10;2.50;;;;;;;18.52;49.27;100876.44;105690;1255;83389;-45
2023/05/12 08:37:34;;;;;;;5.00;2.80;;;;;;;18.59;48.52;100873.11;105845;1253;73502;-45
2023/05/12 08:40:12;;;;;;;7.70;3.10;;;;;;;18.69;48.61;100876.21;105840;1256;70097;-45
2023/05/12 08:42:49;;;;;;;7.40;3.20;;;;;;;18.84;48.32;100872.48;105776;1255;69878;-45
2023/05/12 08:45:17;;;;;;;6.10;3.40;;;;;;;18.98;48.24;100868.72;105704;1257;74994;-45
2023/05/12 08:47:46;;;;;;;5.30;3.00;;;;;;;19.14;48.34;100868.55;105748;1254;83407;-47
2023/05/12 08:50:16;;;;;;;4.80;3.00;;;;;;;19.28;48.14;100870.34;105770;1251;72772;-45
2023/05/12 08:52:45;;;;;;;6.30;3.10;;;;;;;19.41;47.88;100872.33;105728;1261;69994;-45
2023/05/12 08:55:13;;;;;;;5.90;2.70;;;;;;;19.54;47.41;100870.52;105811;1250;69957;-45
2023/05/12 08:57:44;;;;;;;4.10;3.00;;;;;;;19.64;47.09;100867.55;105768;1250;73940;-46
2023/05/12 09:00:13;;;;;;;4.00;2.50;;;;;;;19.72;46.64;100867.61;105622;1257;83676;-46
2023/05/12 09:02:42;;;;;;;7.40;2.70;;;;;;;19.81;46.50;100867.84;105862;1254;71969;-44
2023/05/12 09:05:21;;;;;;;4.80;2.50;;;;;;;19.86;45.90;100866.29;105770;1252;70005;-45
2023/05/12 09:07:51;;;;;;;4.30;3.00;;;;;;;19.90;45.69;100867.45;105788;1254;69982;-45
2023/05/12 09:10:20;;;;;;;4.80;2.60;;;;;;;19.99;45.42;100869.12;105667;1256;74958;-46
2023/05/12 09:13:07;;;;;;;12.80;4.20;;;;;;;20.01;45.19;100863.78;105733;1253;83365;-45
2023/05/12 09:15:38;;;;;;;7.70;2.90;;;;;;;20.14;45.22;100862.25;105713;1256;73741;-45
2023/05/12 09:18:07;;;;;;;6.10;2.90;;;;;;;20.29;45.02;100859.95;105747;1253;70090;-46
2023/05/12 09:20:35;;;;;;;23.10;7.00;;;;;;;20.39;44.88;100862.07;105720;1253;69961;-45
2023/05/12 09:23:14;;;;;;;10.60;3.90;;;;;;;20.54;44.93;100857.44;105621;1256;75000;-45
2023/05/12 09:25:42;;;;;;;8.50;3.80;;;;;;;20.75;44.76;100855.05;105760;1253;83109;-46
2023/05/12 09:28:11;;;;;;;5.70;2.60;;;;;;;20.88;44.46;100853.19;105714;1251;72666;-45
2023/05/12 09:30:41;;;;;;;9.20;3.50;;;;;;;20.98;44.04;100850.01;105912;1253;70431;-46
2023/05/12 09:33:11;;;;;;;4.90;2.30;;;;;;;21.06;43.62;100851.20;105805;1251;69966;-46
2023/05/12 09:35:41;;;;;;;3.80;2.50;;;;;;;21.18;43.68;100850.54;105755;1253;74814;-45
2023/05/12 09:38:10;;;;;;;;;;;;;;;21.36;43.31;100853.77;105761;1253;83503;-45
2023/05/12 09:40:39;;;;;;;8.20;2.50;;;;;;;21.51;42.78;100853.73;105779;1254;73083;-45
2023/05/12 09:43:07;;;;;;;3.70;2.60;;;;;;;21.59;42.13;100852.20;105747;1251;69999;-45
2023/05/12 09:45:41;;;;;;;7.30;2.20;;;;;;;21.70;41.89;100852.10;105795;1253;70082;-46
2023/05/12 09:48:10;;;;;;;12.90;2.50;;;;;;;21.82;41.31;100853.14;105687;1251;73814;-45
2023/05/12 09:50:43;;;;;;;5.00;2.40;;;;;;;21.95;41.17;100853.88;105768;1260;83409;-46
2023/05/12 09:53:17;;;;;;;4.20;2.70;;;;;;;22.09;40.76;100848.73;105671;1251;72888;-46
2023/05/12 09:55:46;;;;;;;4.10;2.60;;;;;;;22.18;40.33;100848.45;105772;1257;69862;-47
2023/05/12 09:58:19;;;;;;;3.20;2.30;;;;;;;22.29;40.28;100847.91;105655;1254;70082;-45
2023/05/12 10:00:49;;;;;;;6.60;2.50;;;;;;;22.48;40.19;100845.00;105732;1254;73966;-46
2023/05/12 10:03:41;;;;;;;4.80;2.80;;;;;;;22.69;40.11;100845.04;105631;1254;83404;-46
2023/05/12 10:06:15;;;;;;;4.80;2.60;;;;;;;22.94;40.12;100835.75;105726;1251;72825;-46
2023/05/12 10:08:47;;;;;;;7.30;2.80;;;;;;;23.20;39.95;100835.77;105690;1253;69976;-45
2023/05/12 10:11:16;;;;;;;7.00;3.00;;;;;;;23.45;39.55;100842.06;105805;1263;69984;-46
2023/05/12 10:13:45;;;;;;;4.70;2.60;;;;;;;23.68;38.96;100837.75;105792;1254;74771;-46
2023/05/12 10:16:14;;;;;;;4.70;2.40;;;;;;;23.80;38.50;100838.18;105760;1251;83487;-46
2023/05/12 10:18:45;;;;;;;6.40;2.60;;;;;;;23.89;38.11;100834.75;105735;1249;73491;-46
2023/05/12 10:21:14;;;;;;;6.10;2.60;;;;;;;24.15;38.14;100833.23;105660;1257;69990;-46
2023/05/12 10:23:43;;;;;;;4.80;2.40;;;;;;;24.45;37.84;100831.63;105761;1250;70568;-47
2023/05/12 10:26:12;;;;;;;5.10;2.40;;;;;;;24.73;37.60;100832.73;105778;1263;73961;-46
2023/05/12 10:28:41;;;;;;;5.10;2.40;;;;;;;24.96;37.19;100826.71;105760;1253;82479;-45
2023/05/12 10:31:10;;;;;;;3.20;2.50;;;;;;;24.97;36.73;100827.86;105774;1252;73749;-47
2023/05/12 10:33:38;;;;;;;6.10;2.50;;;;;;;25.12;36.62;100830.96;105756;1250;70019;-45
2023/05/12 10:36:19;;;;;;;3.80;2.40;;;;;;;25.35;36.36;100832.14;105717;1253;69978;-47
2023/05/12 10:38:50;;;;;;;3.50;2.40;;;;;;;25.63;35.59;100833.86;105724;1253;74256;-47
2023/05/12 10:41:29;;;;;;;4.60;2.20;;;;;;;25.91;34.98;100836.92;105720;1253;83505;-46
2023/05/12 10:43:58;;;;;;;6.50;2.20;;;;;;;26.09;34.68;100834.14;105703;1251;73762;-47
2023/05/12 10:46:27;;;;;;;4.10;2.10;;;;;;;26.21;34.13;100830.87;105761;1254;69931;-46
2023/05/12 10:49:02;;;;;;;2.60;2.00;;;;;;;26.35;33.68;100825.55;105690;1255;70017;-47
2023/05/12 10:51:54;;;;;;;4.30;2.00;;;;;;;26.46;33.34;100828.44;105779;1250;73947;-46
2023/05/12 10:54:24;;;;;;;4.20;2.00;;;;;;;26.72;33.25;100830.55;105762;1253;83199;-46
2023/05/12 10:56:57;;;;;;;4.10;2.00;;;;;;;26.98;32.59;100824.25;105721;1257;72812;-46
2023/05/12 10:59:26;;;;;;;4.10;1.90;;;;;;;26.98;32.32;100822.81;105725;1254;70430;-47
2023/05/12 11:01:56;;;;;;;;;;;;;;;27.04;32.26;100826.72;105792;1254;69909;-45
2023/05/12 11:04:36;;;;;;;4.80;2.20;;;;;;;27.10;31.72;100823.20;105826;1256;75099;-46
2023/05/12 11:07:08;;;;;;;3.30;2.20;;;;;;;27.00;31.95;100825.80;105718;1254;82465;-46
2023/05/12 11:09:42;;;;;;;4.20;2.00;;;;;;;26.80;31.48;100831.91;105856;1250;72658;-47
2023/05/12 11:12:27;;;;;;;6.50;2.10;;;;;;;26.64;31.18;100826.92;105826;1253;70075;-45
2023/05/12 11:14:58;;;;;;;6.40;1.90;;;;;;;26.49;31.33;100827.47;105764;1254;70099;-46
2023/05/12 11:17:26;;;;;;;3.50;2.00;;;;;;;26.91;31.86;100821.02;105747;1252;74914;-46
2023/05/12 11:19:55;;;;;;;3.50;2.00;;;;;;;27.52;31.54;100810.02;105762;1256;83858;-46
2023/05/12 11:22:24;;;;;;;7.10;1.90;;;;;;;27.98;31.28;100806.98;105763;1251;72819;-46
2023/05/12 11:24:52;;;;;;;6.40;1.90;;;;;;;28.45;30.58;100813.44;105837;1252;69984;-46
2023/05/12 11:27:21;;;;;;;3.20;1.60;;;;;;;28.54;29.66;100808.90;105731;1254;70082;-46
2023/05/12 11:29:59;;;;;;;4.10;1.70;;;;;;;28.49;29.00;100812.76;105713;1252;73975;-45